Mount Baw Baw, Australia
Current Conditions -  °F | °C
As of 8:00 AM on Saturday 25 Oct 2014 (Local Time) from YMEN Reporting Station
Overcast Overcast  
Wind Chill: 59°   Ceiling: 1400
Heat Index: 59°   Visibility: 6mi
Dew Point: 52°   Wind: 6mph
Humidity: 77%   Direction: 180°S
Pressure: 30.03"   Gusts: NA
Location:  37.83°S, 146.27°E
Report Text: YMEN 242100Z AUTO 18005KT 9999 // BKN014 OVC021 15/11 Q1017
Loading
Personal Weather Stations






























Interactive Weather Map
Tropical Storm Tracking
New forecast layout! Learn more

10-Day Weather Forecast

Advertisements
Track Severe Weather on mobile